Time;durP1;ratioP1;P1;durP2;ratioP2;P2;SDS_P1;SDS_P2;PMS_P1;PMS_P2;Temp;Humidity;BMP_temperature;BMP_pressure;BME280_temperature;BME280_humidity;BME280_pressure;Samples;Min_cycle;Max_cycle;Signal;HPM_P1;HPM_P2
2021/11/01 00:00:58;;;;;;;74.07;35.45;;;;;;;6.47;99.72;101413.17;1807202;77;20998;-57
2021/11/01 00:03:25;;;;;;;74.32;35.70;;;;;;;6.43;99.98;101407.44;1791909;79;20936;-56
2021/11/01 00:05:51;;;;;;;71.05;37.23;;;;;;;6.48;100.00;101410.94;1794227;78;21630;-57
2021/11/01 00:08:18;;;;;;;68.05;32.53;;;;;;;6.57;100.00;101405.56;1799920;78;21457;-62
2021/11/01 00:10:45;;;;;;;68.92;33.80;;;;;;;6.66;100.00;101395.71;1798162;77;21161;-55
2021/11/01 00:13:12;;;;;;;79.00;35.08;;;;;;;6.69;99.71;101395.68;1771157;79;22896;-56
2021/11/01 00:15:39;;;;;;;78.97;33.48;;;;;;;6.67;99.49;101393.48;1797027;79;21093;-62
2021/11/01 00:18:09;;;;;;;76.67;33.45;;;;;;;6.67;99.44;101390.81;1791347;79;21038;-61
2021/11/01 00:20:35;;;;;;;79.85;32.95;;;;;;;6.68;99.59;101397.91;1802195;77;21078;-56
2021/11/01 00:23:03;;;;;;;71.82;32.03;;;;;;;6.74;99.81;101388.52;1796694;78;21061;-56
2021/11/01 00:25:30;;;;;;;67.35;33.18;;;;;;;6.81;99.64;101386.27;1800993;77;21428;-55
2021/11/01 00:27:59;;;;;;;71.33;33.78;;;;;;;6.84;99.48;101378.23;1793061;78;21076;-56
2021/11/01 00:30:26;;;;;;;71.85;35.50;;;;;;;6.90;99.21;101383.96;1796730;77;20999;-57
2021/11/01 00:32:53;;;;;;;68.07;34.48;;;;;;;6.92;99.02;101382.16;1799483;78;21270;-56
2021/11/01 00:35:20;;;;;;;67.65;34.92;;;;;;;6.97;98.97;101378.12;1803829;79;21538;-56
2021/11/01 00:37:47;;;;;;;78.75;34.58;;;;;;;6.98;98.51;101371.89;1800359;78;21089;-63
2021/11/01 00:40:14;;;;;;;64.42;34.00;;;;;;;6.99;98.46;101368.33;1797911;77;21452;-62
2021/11/01 00:42:41;;;;;;;80.55;34.18;;;;;;;7.03;98.40;101359.39;1795269;78;21027;-62
2021/11/01 00:45:08;;;;;;;65.30;31.95;;;;;;;7.02;97.90;101360.30;1797300;79;21156;-55
2021/11/01 00:47:35;;;;;;;66.75;33.53;;;;;;;7.02;97.76;101354.96;1805585;78;21129;-55
2021/11/01 00:50:04;;;;;;;60.52;31.75;;;;;;;6.97;97.26;101351.47;1802803;77;22341;-56
2021/11/01 00:52:31;;;;;;;72.82;32.08;;;;;;;6.87;96.86;101348.01;1798270;77;21037;-62
2021/11/01 00:55:03;;;;;;;67.00;34.53;;;;;;;6.74;96.52;101348.55;1806159;77;22259;-55
2021/11/01 00:57:26;;;;;;;60.30;31.80;;;;;;;6.61;96.57;101348.24;1795778;77;21073;-55
2021/11/01 00:59:54;;;;;;;72.72;33.33;;;;;;;6.47;96.55;101343.04;1808179;77;21111;-55
2021/11/01 01:02:20;;;;;;;66.35;33.00;;;;;;;6.36;96.70;101340.47;1816908;77;21107;-55
2021/11/01 01:04:47;;;;;;;65.12;31.90;;;;;;;6.24;96.99;101334.32;1807468;77;21033;-55
2021/11/01 01:07:13;;;;;;;70.35;33.78;;;;;;;6.12;97.49;101339.75;1811925;77;21610;-55
2021/11/01 01:09:40;;;;;;;76.35;34.10;;;;;;;6.05;97.94;101340.66;1809436;77;21465;-56
2021/11/01 01:12:08;;;;;;;66.42;32.73;;;;;;;5.98;98.46;101342.48;1797079;77;21123;-56
2021/11/01 01:14:42;;;;;;;75.12;34.27;;;;;;;5.96;98.99;101334.48;1815607;77;21772;-57
2021/11/01 01:17:05;;;;;;;82.60;36.13;;;;;;;5.95;99.47;101338.05;1813919;77;21057;-63
2021/11/01 01:19:44;;;;;;;71.20;32.98;;;;;;;5.99;100.00;101335.80;1807796;77;21000;-55
2021/11/01 01:22:21;;;;;;;72.85;35.17;;;;;;;6.02;100.00;101330.48;1798527;77;21459;-63
2021/11/01 01:24:40;;;;;;;77.78;32.90;;;;;;;6.04;100.00;101337.57;1809523;77;21007;-61
2021/11/01 01:27:08;;;;;;;71.25;33.63;;;;;;;6.04;100.00;101336.23;1812834;77;21092;-55
2021/11/01 01:29:36;;;;;;;76.02;34.03;;;;;;;6.06;100.00;101331.78;1815012;77;21055;-55
2021/11/01 01:32:06;;;;;;;69.90;33.58;;;;;;;6.07;100.00;101330.89;1819340;77;21036;-62
2021/11/01 01:34:32;;;;;;;76.15;34.65;;;;;;;6.06;100.00;101328.69;1812287;77;21547;-56
2021/11/01 01:36:59;;;;;;;64.50;31.12;;;;;;;6.04;100.00;101332.24;1810658;77;22324;-62
2021/11/01 01:39:26;;;;;;;73.28;32.35;;;;;;;6.00;100.00;101337.56;1812434;77;21396;-63
2021/11/01 01:41:52;;;;;;;65.08;32.55;;;;;;;6.02;100.00;101332.27;1810096;77;20993;-62
2021/11/01 01:44:19;;;;;;;69.32;31.82;;;;;;;6.00;100.00;101341.55;1815699;77;21053;-62
2021/11/01 01:46:45;;;;;;;59.20;32.03;;;;;;;5.98;100.00;101342.48;1806838;77;21110;-55
2021/11/01 01:49:12;;;;;;;60.30;31.60;;;;;;;5.99;100.00;101333.59;1812355;77;21136;-56
2021/11/01 01:51:40;;;;;;;70.52;34.18;;;;;;;6.01;100.00;101329.17;1803047;77;20996;-56
2021/11/01 01:54:08;;;;;;;68.28;31.77;;;;;;;6.01;100.00;101331.84;1808511;77;21619;-61
2021/11/01 01:56:34;;;;;;;69.55;32.48;;;;;;;6.02;100.00;101326.48;1809622;77;21051;-62
2021/11/01 01:59:08;;;;;;;66.25;33.42;;;;;;;5.99;100.00;101326.48;1807289;77;21077;-61
2021/11/01 02:01:37;;;;;;;62.62;32.73;;;;;;;5.94;100.00;101330.95;1818983;77;20976;-63
2021/11/01 02:04:04;;;;;;;65.10;32.93;;;;;;;5.85;100.00;101324.34;1811771;77;22929;-63
2021/11/01 02:07:14;;;;;;;67.17;33.02;;;;;;;5.79;100.00;101320.39;1810382;77;20997;-63
2021/11/01 02:09:46;;;;;;;68.55;34.18;;;;;;;5.74;100.00;101316.42;1813625;77;21018;-62
2021/11/01 02:12:18;;;;;;;69.12;31.30;;;;;;;5.77;100.00;101317.77;1809602;77;21535;-63
2021/11/01 02:14:48;;;;;;;61.95;32.00;;;;;;;5.78;100.00;101319.53;1805816;77;20989;-62
2021/11/01 02:17:20;;;;;;;75.90;33.53;;;;;;;5.84;100.00;101322.57;1805974;77;22568;-62
2021/11/01 02:19:48;;;;;;;70.97;33.50;;;;;;;5.89;100.00;101323.45;1808040;77;21010;-64
2021/11/01 02:22:25;;;;;;;71.90;33.73;;;;;;;5.97;100.00;101318.95;1807020;77;21096;-62
2021/11/01 02:25:10;;;;;;;74.55;33.73;;;;;;;6.02;100.00;101312.31;1814657;77;21049;-63
2021/11/01 02:27:39;;;;;;;67.37;32.93;;;;;;;6.05;100.00;101311.38;1807568;77;21007;-63
2021/11/01 02:30:07;;;;;;;64.20;31.40;;;;;;;6.08;100.00;101327.33;1779740;78;21038;-63
2021/11/01 02:32:35;;;;;;;60.33;31.25;;;;;;;6.11;100.00;101326.88;1813355;76;21042;-64
2021/11/01 02:35:04;;;;;;;55.20;30.12;;;;;;;6.16;100.00;101319.73;1810218;77;21110;-63
2021/11/01 02:37:31;;;;;;;52.78;28.55;;;;;;;6.19;100.00;101316.17;1805542;77;21082;-62
2021/11/01 02:39:58;;;;;;;68.20;28.70;;;;;;;6.23;100.00;101309.92;1811706;77;21081;-63
2021/11/01 02:42:27;;;;;;;56.18;29.15;;;;;;;6.26;100.00;101305.89;1798661;77;21618;-63
2021/11/01 02:45:05;;;;;;;59.45;27.87;;;;;;;6.27;100.00;101294.34;1811382;77;21694;-64
2021/11/01 02:47:32;;;;;;;60.58;29.55;;;;;;;6.33;100.00;101292.55;1814983;77;21074;-62
2021/11/01 02:50:00;;;;;;;64.45;31.55;;;;;;;6.37;100.00;101296.95;1810035;77;21399;-62
2021/11/01 02:52:28;;;;;;;77.75;32.30;;;;;;;6.43;100.00;101295.55;1808684;77;21022;-62
2021/11/01 02:54:56;;;;;;;68.97;33.23;;;;;;;6.51;100.00;101299.02;1808464;77;21150;-62
2021/11/01 02:57:23;;;;;;;51.18;28.45;;;;;;;6.61;100.00;101294.48;1803866;77;21063;-62
2021/11/01 02:59:49;;;;;;;54.27;29.55;;;;;;;6.70;100.00;101292.19;1810207;77;21030;-62
2021/11/01 03:02:17;;;;;;;54.67;29.23;;;;;;;6.77;100.00;101293.01;1805532;77;21067;-62
2021/11/01 03:04:44;;;;;;;61.58;29.57;;;;;;;6.84;100.00;101287.60;1804013;77;21109;-62
2021/11/01 03:07:11;;;;;;;66.50;29.45;;;;;;;6.91;100.00;101287.52;1808430;77;21112;-62
2021/11/01 03:09:40;;;;;;;62.90;32.83;;;;;;;6.95;100.00;101283.92;1809577;76;21114;-61
2021/11/01 03:12:10;;;;;;;63.50;31.80;;;;;;;6.93;100.00;101291.05;1807598;77;21046;-62
2021/11/01 03:14:44;;;;;;;57.35;31.25;;;;;;;6.93;100.00;101296.38;1806347;77;21057;-63
2021/11/01 03:17:15;;;;;;;62.25;30.48;;;;;;;6.98;100.00;101294.58;1810232;77;21514;-62
2021/11/01 03:19:44;;;;;;;58.45;30.70;;;;;;;7.07;100.00;101299.79;1804392;77;21440;-62
2021/11/01 03:22:11;;;;;;;58.83;28.47;;;;;;;7.14;100.00;101298.80;1808731;77;21070;-61
2021/11/01 03:24:40;;;;;;;57.25;29.32;;;;;;;7.19;100.00;101302.77;1808224;77;21620;-61
2021/11/01 03:27:07;;;;;;;57.60;29.10;;;;;;;7.26;100.00;101299.58;1811267;77;21102;-63
2021/11/01 03:29:34;;;;;;;60.60;30.02;;;;;;;7.33;100.00;101302.59;1814851;77;20973;-62
2021/11/01 03:32:02;;;;;;;67.27;31.37;;;;;;;7.38;100.00;101303.41;1803865;77;21885;-63
2021/11/01 03:34:28;;;;;;;63.45;28.60;;;;;;;7.47;100.00;101305.07;1805795;77;21047;-62
2021/11/01 03:36:57;;;;;;;64.87;29.02;;;;;;;7.51;100.00;101301.92;1800810;77;21573;-63
2021/11/01 03:39:24;;;;;;;54.55;28.52;;;;;;;7.50;100.00;101297.49;1804180;77;21433;-63
2021/11/01 03:41:51;;;;;;;64.15;30.55;;;;;;;7.44;100.00;101299.34;1810086;77;21074;-62
2021/11/01 03:44:27;;;;;;;58.60;29.40;;;;;;;7.41;100.00;101294.05;1804709;77;21815;-63
2021/11/01 03:46:57;;;;;;;55.15;29.37;;;;;;;7.42;100.00;101295.82;1768656;79;21359;-62
2021/11/01 03:49:21;;;;;;;60.58;29.25;;;;;;;7.47;100.00;101290.86;1757822;80;21278;-61
2021/11/01 03:51:51;;;;;;;53.75;29.85;;;;;;;7.53;100.00;101292.11;1725099;80;21097;-62
2021/11/01 03:54:20;;;;;;;55.38;30.40;;;;;;;7.60;100.00;101294.67;1775032;79;21058;-62
2021/11/01 03:56:47;;;;;;;67.67;32.90;;;;;;;7.67;100.00;101296.81;1812002;77;22158;-62
2021/11/01 03:59:14;;;;;;;60.00;29.18;;;;;;;7.77;100.00;101301.57;1816807;77;21029;-62
2021/11/01 04:01:43;;;;;;;53.15;29.07;;;;;;;7.85;100.00;101295.66;1813166;77;21117;-62
2021/11/01 04:04:10;;;;;;;61.08;29.80;;;;;;;7.90;100.00;101294.26;1812652;77;21100;-63
2021/11/01 04:06:39;;;;;;;59.30;29.85;;;;;;;7.94;100.00;101290.63;1814327;77;21527;-63
2021/11/01 04:09:08;;;;;;;62.80;29.18;;;;;;;7.98;100.00;101291.00;1819083;77;21827;-62
2021/11/01 04:11:37;;;;;;;61.10;31.65;;;;;;;7.98;99.78;101278.98;1811490;77;20986;-62
2021/11/01 04:14:10;;;;;;;58.95;28.90;;;;;;;7.97;99.39;101271.02;1810893;77;21037;-63
2021/11/01 04:16:43;;;;;;;56.55;30.80;;;;;;;7.95;98.70;101265.69;1825749;77;20966;-63
2021/11/01 04:19:57;;;;;;;61.55;30.15;;;;;;;7.95;98.34;101268.36;1816171;77;21003;-62
2021/11/01 04:21:37;;;;;;;55.48;29.48;;;;;;;7.94;98.04;101271.94;1776265;77;21137;-62
2021/11/01 04:24:05;;;;;;;55.28;30.00;;;;;;;7.95;97.91;101270.14;1813426;77;21553;-62
2021/11/01 04:26:31;;;;;;;57.43;29.87;;;;;;;7.98;97.46;101271.45;1822129;77;21069;-62
2021/11/01 04:29:02;;;;;;;57.95;29.50;;;;;;;7.99;97.35;101275.41;1810988;77;21470;-62
2021/11/01 04:31:32;;;;;;;48.63;28.67;;;;;;;7.99;96.87;101274.55;1816110;77;21092;-62
2021/11/01 04:33:59;;;;;;;73.17;30.95;;;;;;;7.95;96.50;101263.02;1823518;77;21121;-62
2021/11/01 04:36:23;;;;;;;60.20;29.42;;;;;;;7.92;96.41;101258.17;1817948;77;20987;-56
2021/11/01 04:39:12;;;;;;;50.83;28.92;;;;;;;7.90;96.31;101259.55;1810864;77;20987;-56
2021/11/01 04:42:07;;;;;;;61.37;31.02;;;;;;;7.85;96.15;101259.61;1810220;77;21392;-56
2021/11/01 04:44:41;;;;;;;58.92;31.15;;;;;;;7.83;96.34;101259.20;1812879;77;21557;-56
2021/11/01 04:54:57;;;;;;;53.85;26.97;;;;;;;7.62;96.65;101244.40;1814644;77;21032;-55
2021/11/01 04:57:25;;;;;;;61.18;30.70;;;;;;;7.49;96.97;101249.03;1814259;77;21115;-58
2021/11/01 04:59:52;;;;;;;63.08;29.45;;;;;;;7.40;97.38;101246.91;1795690;77;21159;-56
2021/11/01 05:02:20;;;;;;;59.42;30.60;;;;;;;7.38;97.70;101252.72;1815537;77;21039;-57
2021/11/01 05:04:48;;;;;;;59.20;28.12;;;;;;;7.34;98.22;101243.00;1809011;77;21480;-63
2021/11/01 05:07:15;;;;;;;58.23;27.87;;;;;;;7.35;98.99;101240.76;1809813;77;21019;-55
2021/11/01 05:09:47;;;;;;;55.83;27.90;;;;;;;7.38;99.59;101243.37;1805146;77;21459;-55
2021/11/01 05:12:24;;;;;;;61.75;30.20;;;;;;;7.42;100.00;101238.89;1816918;76;21550;-56
2021/11/01 05:19:53;;;;;;;60.45;28.87;;;;;;;7.58;100.00;101242.22;1810910;77;21003;-61
2021/11/01 05:22:32;;;;;;;58.48;29.98;;;;;;;7.62;100.00;101241.73;1807881;77;21050;-63
2021/11/01 05:25:02;;;;;;;55.88;27.98;;;;;;;7.69;100.00;101241.62;1812867;77;21121;-55
2021/11/01 05:30:08;;;;;;;55.73;28.70;;;;;;;7.86;100.00;101240.02;1806339;77;21480;-55
2021/11/01 05:32:36;;;;;;;60.88;28.20;;;;;;;7.98;100.00;101236.27;1805961;77;21104;-57
2021/11/01 05:35:04;;;;;;;51.53;27.55;;;;;;;8.08;100.00;101228.12;1818803;77;21534;-62
2021/11/01 05:37:31;;;;;;;52.60;26.62;;;;;;;8.12;100.00;101228.48;1817767;77;22268;-57
2021/11/01 05:39:57;;;;;;;47.98;26.82;;;;;;;8.19;100.00;101220.78;1819331;77;21439;-57
2021/11/01 05:42:24;;;;;;;48.08;27.15;;;;;;;8.25;100.00;101222.48;1809483;77;21037;-58
2021/11/01 05:44:51;;;;;;;56.92;29.98;;;;;;;8.29;100.00;101226.85;1814677;77;21091;-57
2021/11/01 05:47:17;;;;;;;50.25;27.55;;;;;;;8.29;100.00;101222.84;1816727;77;21040;-56
2021/11/01 05:49:44;;;;;;;60.08;30.48;;;;;;;8.30;100.00;101212.14;1811613;77;22094;-56
2021/11/01 05:52:21;;;;;;;51.18;27.37;;;;;;;8.35;100.00;101221.39;1818958;77;21088;-55
2021/11/01 05:54:45;;;;;;;55.60;27.73;;;;;;;8.41;100.00;101211.05;1799735;77;21559;-62
2021/11/01 05:57:21;;;;;;;58.98;27.95;;;;;;;8.47;100.00;101220.28;1812859;77;21045;-56
2021/11/01 06:05:39;;;;;;;48.87;27.48;;;;;;;8.75;100.00;101222.48;1802442;77;21023;-56
2021/11/01 06:10:23;;;;;;;46.80;26.05;;;;;;;8.93;100.00;101224.33;1806512;77;21047;-56
2021/11/01 06:15:27;;;;;;;44.23;24.98;;;;;;;9.15;100.00;101217.61;1809717;77;21055;-56
2021/11/01 06:17:55;;;;;;;40.38;24.15;;;;;;;9.26;100.00;101212.50;1813303;77;21033;-56
2021/11/01 06:20:22;;;;;;;47.33;25.43;;;;;;;9.32;100.00;101224.40;1798132;77;21097;-57
2021/11/01 06:22:49;;;;;;;44.38;24.35;;;;;;;9.41;100.00;101224.66;1810978;77;21966;-56
2021/11/01 06:25:18;;;;;;;42.83;23.65;;;;;;;9.45;100.00;101220.55;1811986;77;21020;-56
2021/11/01 06:27:45;;;;;;;47.25;25.43;;;;;;;9.53;100.00;101215.46;1810648;77;21811;-57
2021/11/01 06:30:33;;;;;;;46.90;25.17;;;;;;;9.61;100.00;101216.16;1812777;77;21118;-57
2021/11/01 06:32:50;;;;;;;49.40;24.92;;;;;;;9.65;100.00;101215.19;1803778;77;21200;-56
2021/11/01 06:43:21;;;;;;;41.95;24.80;;;;;;;9.89;99.76;101223.55;1816110;77;22394;-56
2021/11/01 07:15:35;;;;;;;37.28;19.52;;;;;;;10.67;91.96;101208.14;1774022;79;21077;-56
2021/11/01 07:18:06;;;;;;;35.50;20.95;;;;;;;10.66;91.16;101212.64;1774505;79;21675;-56
2021/11/01 07:20:39;;;;;;;35.15;20.80;;;;;;;10.69;90.87;101211.66;1774056;79;21553;-57
2021/11/01 08:23:20;;;;;;;39.10;22.00;;;;;;;11.25;81.90;101206.03;1802585;77;21444;-64
2021/11/01 08:28:33;;;;;;;43.23;23.30;;;;;;;11.28;81.86;101203.25;1808139;77;26962;-64
2021/11/01 08:39:26;;;;;;;39.58;22.30;;;;;;;11.42;81.57;101193.42;1805591;77;21114;-63
2021/11/01 08:47:43;;;;;;;42.88;22.22;;;;;;;11.42;81.29;101184.91;1802460;77;21056;-57
2021/11/01 08:50:26;;;;;;;37.70;21.75;;;;;;;11.46;81.62;101183.88;1800078;77;20991;-64
2021/11/01 09:04:04;;;;;;;;;;;;;;;11.63;80.40;101182.47;1797843;77;21077;-56
2021/11/01 09:06:47;;;;;;;34.53;20.72;;;;;;;11.59;80.09;101176.75;1789666;77;20248;-55
2021/11/01 09:12:21;;;;;;;36.70;21.70;;;;;;;11.58;80.13;101183.06;1790155;77;21003;-59
2021/11/01 09:19:59;;;;;;;42.00;22.02;;;;;;;11.49;80.66;101178.00;1791708;77;27030;-58
2021/11/01 09:23:02;;;;;;;36.85;21.50;;;;;;;11.54;80.78;101180.06;1798776;78;21510;-58
2021/11/01 09:25:18;;;;;;;39.45;21.85;;;;;;;11.62;80.18;101188.77;1793122;78;21099;-56
2021/11/01 09:27:50;;;;;;;47.50;23.10;;;;;;;11.60;79.93;101178.52;1786846;78;21010;-57
2021/11/01 09:41:00;;;;;;;40.40;21.90;;;;;;;11.77;79.34;101165.00;1793970;78;21055;-57
2021/11/01 09:43:21;;;;;;;43.42;20.80;;;;;;;11.76;79.02;101165.48;1790214;77;21065;-57
2021/11/01 09:46:00;;;;;;;35.08;21.37;;;;;;;11.79;79.12;101165.37;1792659;77;21415;-56
2021/11/01 09:48:27;;;;;;;35.63;22.05;;;;;;;11.86;79.04;101166.91;1789591;77;21419;-57
2021/11/01 09:50:54;;;;;;;40.10;22.22;;;;;;;11.96;78.78;101164.80;1793077;77;20856;-58
2021/11/01 09:53:25;;;;;;;35.92;21.60;;;;;;;12.01;78.37;101166.02;1791014;77;21010;-58
2021/11/01 09:56:06;;;;;;;40.83;22.62;;;;;;;12.02;78.25;101163.27;1799082;77;20987;-57
2021/11/01 10:01:07;;;;;;;38.63;22.70;;;;;;;12.07;77.83;101158.22;1812241;77;21100;-57
2021/11/01 10:03:44;;;;;;;36.30;21.95;;;;;;;12.07;77.43;101156.40;1804727;77;21369;-58
2021/11/01 10:06:21;;;;;;;41.75;22.17;;;;;;;12.09;77.18;101150.98;1814892;77;21460;-57
2021/11/01 10:08:53;;;;;;;41.48;20.35;;;;;;;12.06;77.19;101143.89;1809853;77;21102;-57
2021/11/01 10:11:26;;;;;;;34.83;20.10;;;;;;;12.06;76.96;101155.13;1816642;77;21050;-57
2021/11/01 10:14:02;;;;;;;35.88;20.60;;;;;;;11.96;77.05;101143.30;1809845;77;21066;-59
2021/11/01 10:19:41;;;;;;;45.48;21.10;;;;;;;11.87;77.60;101135.56;1811069;77;22170;-56
2021/11/01 10:22:16;;;;;;;35.43;20.05;;;;;;;11.94;78.07;101133.55;1810730;77;21038;-57
2021/11/01 10:24:41;;;;;;;37.05;21.33;;;;;;;12.00;77.70;101134.19;1816849;77;21492;-59
2021/11/01 10:27:13;;;;;;;34.45;20.15;;;;;;;11.99;77.46;101135.13;1813474;77;21234;-59
2021/11/01 10:30:07;;;;;;;35.70;21.20;;;;;;;12.01;77.40;101135.13;1819758;77;21009;-56
2021/11/01 10:32:49;;;;;;;38.17;21.50;;;;;;;11.97;77.31;101123.56;1794964;77;21375;-57
2021/11/01 10:35:30;;;;;;;34.58;20.37;;;;;;;11.95;77.82;101118.70;1788053;77;21792;-58
2021/11/01 10:38:26;;;;;;;36.63;20.35;;;;;;;11.99;77.89;101118.14;1803257;77;21631;-56
2021/11/01 10:43:48;;;;;;;32.05;18.70;;;;;;;12.07;77.73;101101.78;1790928;78;20237;-57
2021/11/01 11:12:00;;;;;;;32.23;18.60;;;;;;;12.42;76.24;101086.16;1822512;77;21508;-57
2021/11/01 11:14:40;;;;;;;34.78;18.45;;;;;;;12.43;75.99;101083.42;1823678;77;21474;-58
2021/11/01 11:17:19;;;;;;;31.52;17.77;;;;;;;12.42;75.79;101080.78;1821531;77;21459;-58
2021/11/01 11:20:05;;;;;;;32.60;18.42;;;;;;;12.39;75.52;101079.10;1798320;77;21101;-57
2021/11/01 11:27:51;;;;;;;31.27;17.57;;;;;;;12.30;75.70;101080.32;1821833;77;21082;-58
2021/11/01 11:38:55;;;;;;;29.65;16.95;;;;;;;12.17;75.83;101070.48;1818378;77;21042;-59
2021/11/01 11:49:12;;;;;;;;;;;;;;;11.99;76.57;101059.02;1820132;76;21424;-65
2021/11/01 11:51:40;;;;;;;34.40;17.07;;;;;;;11.91;76.77;101056.61;1818294;77;20239;-65
2021/11/01 11:54:09;;;;;;;29.55;17.02;;;;;;;11.84;77.15;101052.39;1817525;76;21030;-58
2021/11/01 11:56:43;;;;;;;33.95;17.20;;;;;;;11.85;77.41;101051.46;1809760;76;21098;-58
2021/11/01 11:59:11;;;;;;;34.05;16.82;;;;;;;11.87;77.38;101048.25;1798962;77;21044;-57
2021/11/01 12:01:43;;;;;;;34.98;17.40;;;;;;;11.86;77.27;101041.13;1801380;77;21039;-57
2021/11/01 12:04:24;;;;;;;29.05;16.65;;;;;;;11.85;77.25;101035.34;1804538;77;21029;-57
2021/11/01 12:07:02;;;;;;;25.97;15.93;;;;;;;11.84;77.24;101037.63;1800044;77;21666;-57
2021/11/01 12:17:30;;;;;;;24.87;15.00;;;;;;;11.64;78.34;101036.95;1799437;77;21098;-65
2021/11/01 12:20:06;;;;;;;22.60;13.32;;;;;;;11.54;78.79;101029.69;1804140;77;21425;-65
2021/11/01 12:22:38;;;;;;;25.97;13.70;;;;;;;11.48;79.21;101020.52;1805230;77;21062;-63
2021/11/01 12:25:09;;;;;;;28.00;15.23;;;;;;;11.35;79.79;101019.57;1803528;76;21018;-57
2021/11/01 12:27:39;;;;;;;27.90;14.33;;;;;;;11.29;80.36;101010.39;1776535;78;21751;-56
2021/11/01 12:30:11;;;;;;;37.17;16.20;;;;;;;11.26;80.67;101003.31;1799945;77;21055;-56
2021/11/01 12:32:40;;;;;;;27.73;14.85;;;;;;;11.28;80.81;101001.93;1808024;77;21094;-57
2021/11/01 12:35:15;;;;;;;29.87;14.87;;;;;;;11.28;80.60;101001.48;1807457;77;20966;-56
2021/11/01 12:37:42;;;;;;;24.67;14.10;;;;;;;11.26;80.83;101001.11;1804660;77;20963;-57
2021/11/01 12:48:32;;;;;;;24.27;12.93;;;;;;;11.21;81.10;100991.00;1808999;77;21020;-56
2021/11/01 12:59:15;;;;;;;24.47;14.13;;;;;;;11.01;82.04;100977.30;1802494;77;21105;-57
2021/11/01 13:01:49;;;;;;;23.02;13.68;;;;;;;10.94;82.44;100981.12;1803428;77;22237;-56
2021/11/01 13:04:34;;;;;;;24.25;13.18;;;;;;;10.87;82.93;100978.25;1799711;77;21098;-57
2021/11/01 13:09:47;;;;;;;21.52;11.55;;;;;;;10.72;83.68;100983.61;1698296;82;21131;-57
2021/11/01 13:12:33;;;;;;;18.52;11.60;;;;;;;10.69;84.10;100969.86;1740862;78;21078;-56
2021/11/01 13:20:07;;;;;;;19.05;11.60;;;;;;;10.58;85.16;100967.52;1769129;79;21137;-56
2021/11/01 13:22:44;;;;;;;19.65;12.13;;;;;;;10.52;85.87;100967.72;1754839;80;21071;-55
2021/11/01 13:25:19;;;;;;;18.25;11.25;;;;;;;10.53;86.24;100970.81;1748001;79;21024;-56
2021/11/01 13:27:57;;;;;;;19.62;11.85;;;;;;;10.51;86.49;100967.75;1747602;79;21075;-56
2021/11/01 13:36:38;;;;;;;22.98;12.90;;;;;;;10.29;88.00;100957.66;1748125;79;21112;-58
2021/11/01 13:38:28;;;;;;;20.55;12.80;;;;;;;10.22;88.40;100956.11;1724089;79;21093;-57
2021/11/01 13:40:55;;;;;;;22.45;13.22;;;;;;;10.19;89.00;100953.04;1751066;79;21478;-55
2021/11/01 13:43:31;;;;;;;24.20;14.23;;;;;;;10.18;89.19;100943.25;1752308;79;21091;-56
2021/11/01 13:46:00;;;;;;;27.37;14.50;;;;;;;10.17;89.49;100946.86;1749908;79;26966;-57
2021/11/01 13:48:29;;;;;;;25.10;14.45;;;;;;;10.15;89.87;100958.08;1746095;79;21038;-57
2021/11/01 13:51:10;;;;;;;24.00;14.30;;;;;;;10.19;90.12;100958.41;1750089;79;21099;-57
2021/11/01 13:53:47;;;;;;;24.43;14.85;;;;;;;10.18;90.29;100953.52;1745352;79;21135;-56
2021/11/01 13:56:19;;;;;;;28.98;15.15;;;;;;;10.23;90.36;100965.42;1742198;79;21170;-57
2021/11/01 13:58:54;;;;;;;24.95;14.00;;;;;;;10.22;90.25;100977.06;1783134;78;21618;-57
2021/11/01 14:01:37;;;;;;;26.30;14.85;;;;;;;10.20;90.36;100969.53;1730236;79;21069;-56
2021/11/01 14:12:28;;;;;;;26.30;15.40;;;;;;;10.01;91.23;100966.53;1767311;78;21821;-56
2021/11/01 14:15:07;;;;;;;25.68;14.10;;;;;;;9.92;92.18;100968.12;1757311;79;20947;-58
2021/11/01 14:20:27;;;;;;;23.98;14.45;;;;;;;9.85;93.53;100973.66;1826658;77;21113;-56
2021/11/01 14:31:02;;;;;;;26.33;15.03;;;;;;;9.72;95.03;100969.11;1796688;78;21011;-55
2021/11/01 14:58:32;;;;;;;29.40;16.97;;;;;;;9.82;99.00;100944.73;1787179;78;21421;-57
2021/11/01 15:19:12;;;;;;;39.18;21.15;;;;;;;9.81;100.00;100917.10;1750910;79;21096;-56
2021/11/01 15:21:37;;;;;;;38.67;20.25;;;;;;;9.81;100.00;100916.21;1750766;80;21578;-57
2021/11/01 15:37:50;;;;;;;42.27;19.48;;;;;;;9.64;100.00;100919.38;1755585;79;21022;-56
2021/11/01 15:40:20;;;;;;;38.95;19.60;;;;;;;9.65;100.00;100922.47;1747553;79;21634;-56
2021/11/01 16:19:33;;;;;;;45.40;22.82;;;;;;;10.57;100.00;100945.66;1831603;77;20907;-57
2021/11/01 16:22:11;;;;;;;48.78;25.20;;;;;;;10.49;99.86;100946.82;1825868;77;21393;-57
2021/11/01 16:24:38;;;;;;;50.38;26.62;;;;;;;10.41;99.93;100953.31;1829996;77;20978;-56
2021/11/01 16:27:07;;;;;;;51.35;25.88;;;;;;;10.42;100.00;100955.06;1828934;77;21523;-56
2021/11/01 16:29:49;;;;;;;56.85;25.80;;;;;;;10.43;100.00;100960.84;1826799;77;21019;-55
2021/11/01 16:32:23;;;;;;;54.65;24.40;;;;;;;10.44;100.00;100961.70;1822364;77;20985;-56
2021/11/01 16:34:59;;;;;;;53.63;26.35;;;;;;;10.48;100.00;100955.31;1824450;77;21032;-56
2021/11/01 16:37:49;;;;;;;50.43;25.48;;;;;;;10.52;100.00;100952.08;1810789;77;21009;-55
2021/11/01 16:39:51;;;;;;;50.38;25.27;;;;;;;10.59;100.00;100953.63;1808467;77;21824;-56
2021/11/01 16:42:25;;;;;;;56.23;26.52;;;;;;;10.62;100.00;100951.33;1825259;77;21029;-56
2021/11/01 16:44:52;;;;;;;54.65;25.68;;;;;;;10.66;99.97;100952.53;1828541;77;21272;-57
2021/11/01 16:47:20;;;;;;;49.10;24.90;;;;;;;10.66;99.72;100957.89;1816032;77;21330;-56
2021/11/01 16:49:49;;;;;;;52.38;25.80;;;;;;;10.66;99.60;100958.34;1822389;77;21039;-56
2021/11/01 16:52:19;;;;;;;60.63;28.83;;;;;;;10.63;99.48;100954.42;1820086;77;21167;-56
2021/11/01 16:54:54;;;;;;;63.33;29.48;;;;;;;10.65;99.65;100954.80;1821990;78;21080;-56
2021/11/01 16:57:25;;;;;;;60.25;28.90;;;;;;;10.70;99.67;100949.27;1821119;77;21158;-57
2021/11/01 17:00:11;;;;;;;62.00;31.95;;;;;;;10.70;99.38;100941.22;1813699;77;21117;-59
2021/11/01 17:02:42;;;;;;;56.58;30.02;;;;;;;10.64;99.12;100937.41;1800435;77;21570;-59
2021/11/01 17:07:43;;;;;;;75.32;35.40;;;;;;;10.50;99.23;100934.73;1787987;77;21495;-57
2021/11/01 17:27:01;;;;;;;64.80;32.60;;;;;;;10.15;100.00;100925.94;1814575;77;21041;-56
2021/11/01 17:35:18;;;;;;;70.05;33.53;;;;;;;9.97;100.00;100918.00;1804794;77;21553;-57
2021/11/01 18:36:32;;;;;;;75.65;33.92;;;;;;;10.15;100.00;100860.29;1790419;78;21189;-65
2021/11/01 18:51:25;;;;;;;68.40;31.65;;;;;;;9.56;100.00;100821.89;1817010;77;21397;-57
2021/11/01 18:54:17;;;;;;;69.55;33.35;;;;;;;9.45;100.00;100820.42;1812831;77;21790;-57
2021/11/01 18:56:41;;;;;;;67.25;33.65;;;;;;;9.42;100.00;100825.88;1818795;77;21033;-56
2021/11/01 18:59:08;;;;;;;72.55;35.48;;;;;;;9.37;100.00;100826.44;1823473;77;21547;-65
2021/11/01 19:01:39;;;;;;;73.15;35.00;;;;;;;9.37;100.00;100827.78;1824389;77;20947;-58
2021/11/01 19:04:15;;;;;;;70.62;35.20;;;;;;;9.37;100.00;100828.25;1816695;77;20971;-57
2021/11/01 19:06:49;;;;;;;76.53;35.38;;;;;;;9.32;100.00;100819.02;1819102;77;21131;-57
2021/11/01 20:04:19;;;;;;;59.08;31.52;;;;;;;9.19;100.00;100778.84;1798675;77;21004;-65
2021/11/01 21:27:02;;;;;;;40.28;21.87;;;;;;;9.22;100.00;100666.39;1823556;77;21174;-58
2021/11/01 21:29:33;;;;;;;38.42;21.90;;;;;;;9.20;100.00;100673.11;1808739;77;21496;-56
2021/11/01 21:32:00;;;;;;;43.17;22.37;;;;;;;9.20;100.00;100664.23;1829122;77;21067;-56
2021/11/01 21:34:52;;;;;;;42.58;21.85;;;;;;;9.21;100.00;100660.63;1821649;77;21090;-58
2021/11/01 21:37:07;;;;;;;37.65;21.57;;;;;;;9.22;100.00;100661.03;1812210;77;21810;-57